Brooke — WDB2356 — position and weather

sailwx.info

Track history (hours):
 
Tides and Currents Weather Stations Pressure Air Temp Water Temp Dewpoint Dewpoint Depression Visibility Wind Speed Wind Dir Waves Ship Positions

Brooke

Owner: MARTIN OPERATING PARTNERSHIP LP, La Porte, TX. More information available from US FCC via Universal Licensing System and Coast Guard Vessel Documentation Center.

Last reported at 2017-Dec-17 22:59 UTC. Time now 2017-Dec-17 23:12 UTC.
Position N 29°44' W 095°08'.

Length 20 m.

Type: Towing. MMSI: 366875030.

Date/timePositionNaut miles runAvg speedWind from/ knotsBaromVisibWave heightAir tempDewpointWater temp
2017-Dec-17 22:59N 29°44' W 095°08'0 0.0
2017-Dec-17 22:30N 29°44' W 095°08'0 0.0
2017-Dec-17 22:00N 29°44' W 095°08'0 0.0
2017-Dec-17 21:30N 29°44' W 095°08'0 0.0
2017-Dec-17 20:58N 29°44' W 095°08'0 0.0
2017-Dec-17 20:23N 29°44' W 095°08'0 0.0
2017-Dec-17 20:00N 29°44' W 095°08'0 0.0
2017-Dec-17 19:30N 29°44' W 095°08'0 0.0
2017-Dec-17 18:43N 29°44' W 095°08'0 0.0
2017-Dec-17 18:26N 29°44' W 095°08'0 0.0
2017-Dec-17 17:59N 29°44' W 095°08'0 0.0
2017-Dec-17 16:42N 29°44' W 095°08'0 0.0
2017-Dec-17 16:28N 29°44' W 095°08'0 0.0
2017-Dec-17 15:59N 29°44' W 095°08'0 0.0
2017-Dec-17 15:21N 29°44' W 095°08'0 0.0
2017-Dec-17 15:00N 29°44' W 095°08'0 0.0
2017-Dec-17 14:28N 29°44' W 095°08'0 0.0
2017-Dec-17 13:59N 29°44' W 095°08'0 0.0
2017-Dec-17 13:29N 29°44' W 095°08'0 0.0
2017-Dec-17 12:56N 29°44' W 095°08'0 0.0
2017-Dec-17 12:27N 29°44' W 095°08'0 0.0
2017-Dec-17 12:00N 29°44' W 095°08'0 0.0
2017-Dec-17 11:30N 29°44' W 095°08'0 0.0
2017-Dec-17 11:00N 29°44' W 095°08'0 0.0
2017-Dec-17 10:30N 29°44' W 095°08'0 0.0
2017-Dec-17 10:00N 29°44' W 095°08'0 0.0
2017-Dec-17 09:30N 29°44' W 095°08'0 0.0
2017-Dec-17 09:00N 29°44' W 095°08'0 0.0
2017-Dec-17 08:29N 29°44' W 095°08'0 0.0
2017-Dec-17 08:00N 29°44' W 095°08'0 0.0
2017-Dec-17 07:30N 29°44' W 095°08'0 0.0
2017-Dec-17 07:01N 29°44' W 095°08'0 0.0
2017-Dec-17 06:30N 29°44' W 095°08'0 0.0
2017-Dec-17 06:00N 29°44' W 095°08'0 0.0
2017-Dec-17 05:30N 29°44' W 095°08'0 0.0
2017-Dec-17 05:00N 29°44' W 095°08'0 0.0
2017-Dec-17 04:31N 29°44' W 095°08'0 0.0
2017-Dec-17 04:00N 29°44' W 095°08'0 0.0
2017-Dec-17 03:30N 29°44' W 095°08'0 0.0
2017-Dec-17 02:58N 29°44' W 095°08'0 0.0
2017-Dec-17 02:15N 29°44' W 095°08'0 0.0
2017-Dec-17 01:32N 29°44' W 095°08'0 0.0
2017-Dec-17 01:28N 29°44' W 095°08'2 0.2
2017-Dec-16 13:46N 29°45' W 095°06'0 0.1
2017-Dec-16 13:30N 29°45' W 095°06'0 0.0
2017-Dec-16 12:59N 29°45' W 095°06'0 0.0
2017-Dec-16 12:27N 29°45' W 095°06'0 0.0
2017-Dec-16 12:00N 29°45' W 095°06'0 0.0
2017-Dec-16 11:30N 29°45' W 095°06'0 0.0
2017-Dec-16 10:59N 29°45' W 095°06'0 0.0
2017-Dec-16 10:30N 29°45' W 095°06'0 0.0
2017-Dec-16 10:00N 29°45' W 095°06'0 0.0
2017-Dec-16 09:30N 29°45' W 095°06'0 0.0
2017-Dec-16 09:00N 29°45' W 095°06'0 0.0
2017-Dec-16 08:27N 29°45' W 095°06'0 0.0
2017-Dec-16 08:00N 29°45' W 095°06'0 0.0
2017-Dec-16 07:27N 29°45' W 095°06'0 0.0
2017-Dec-16 07:00N 29°45' W 095°06'0 0.0
2017-Dec-16 06:29N 29°45' W 095°06'0 0.0
2017-Dec-16 06:00N 29°45' W 095°06'0 0.0
2017-Dec-16 05:30N 29°45' W 095°06'0 0.0
2017-Dec-16 05:00N 29°45' W 095°06'0 0.0
2017-Dec-16 04:29N 29°45' W 095°06'0 0.0
2017-Dec-16 03:59N 29°45' W 095°06'0 0.0
2017-Dec-16 03:29N 29°45' W 095°06'0 0.2
2017-Dec-16 02:49N 29°45' W 095°06'1 4.5
2017-Dec-16 02:30N 29°44' W 095°07'1 1.6
2017-Dec-16 02:00N 29°44' W 095°08'0 0.0
2017-Dec-16 01:30N 29°44' W 095°08'0 0.0
2017-Dec-16 01:00N 29°44' W 095°08'0 0.0
2017-Dec-16 00:30N 29°44' W 095°08'0 0.0
2017-Dec-15 23:58N 29°44' W 095°08'0 0.0
2017-Dec-15 23:30N 29°44' W 095°08'0 0.0
2017-Dec-15 22:59N 29°44' W 095°08'0 0.0
2017-Dec-15 22:31N 29°44' W 095°08'3 4.8
2017-Dec-15 21:52N 29°46' W 095°05'0 1.0
2017-Dec-15 21:30N 29°46' W 095°06'2 4.5
2017-Dec-15 20:59N 29°44' W 095°07'1 1.4
2017-Dec-15 20:30N 29°44' W 095°08'0 0.0
2017-Dec-15 20:00N 29°44' W 095°08'0 0.0
2017-Dec-15 19:30N 29°44' W 095°08'0 0.0
2017-Dec-15 19:00N 29°44' W 095°08'0 0.0
2017-Dec-15 18:30N 29°44' W 095°08'0 0.0
2017-Dec-15 18:00N 29°44' W 095°08'0 0.0
2017-Dec-15 17:30N 29°44' W 095°08'0 0.0
2017-Dec-15 17:00N 29°44' W 095°08'0 0.0
2017-Dec-15 16:29N 29°44' W 095°08'0 0.0
2017-Dec-15 16:00N 29°44' W 095°08'0 0.0
2017-Dec-15 15:28N 29°44' W 095°08'0 0.0
2017-Dec-15 15:00N 29°44' W 095°08'0 0.0
2017-Dec-15 14:30N 29°44' W 095°08'0 0.0
2017-Dec-15 13:59N 29°44' W 095°08'0 0.0
2017-Dec-15 13:30N 29°44' W 095°08'0 0.0
2017-Dec-15 13:00N 29°44' W 095°08'0 0.0
2017-Dec-15 12:30N 29°44' W 095°08'0 0.0
2017-Dec-15 12:00N 29°44' W 095°08'0 0.0
2017-Dec-15 11:30N 29°44' W 095°08'0 0.0
2017-Dec-15 11:00N 29°44' W 095°08'0 0.0
2017-Dec-15 10:30N 29°44' W 095°08'0 0.0
2017-Dec-15 10:00N 29°44' W 095°08'0 0.0
2017-Dec-15 09:30N 29°44' W 095°08'0 0.0
2017-Dec-15 09:00N 29°44' W 095°08'0 0.0
2017-Dec-15 08:30N 29°44' W 095°08'0 0.0
2017-Dec-15 08:00N 29°44' W 095°08'0 0.0
2017-Dec-15 07:30N 29°44' W 095°08'0 0.0
2017-Dec-15 07:00N 29°44' W 095°08'0 0.0
2017-Dec-15 06:30N 29°44' W 095°08'0 0.0
2017-Dec-15 06:00N 29°44' W 095°08'0 0.0
2017-Dec-15 05:30N 29°44' W 095°08'0 0.5
2017-Dec-15 04:59N 29°44' W 095°08'0 0.0
2017-Dec-15 04:00N 29°44' W 095°08'0 0.1
2017-Dec-15 00:08N 29°44' W 095°08'0 0.0
2017-Dec-14 17:45N 29°44' W 095°08'0 0.1
2017-Dec-14 12:42N 29°44' W 095°08'0 0.3
2017-Dec-14 11:36N 29°44' W 095°08'0 0.0
2017-Dec-14 11:15N 29°44' W 095°08'0 0.0
2017-Dec-14 10:56N 29°44' W 095°08'0 0.0
2017-Dec-14 10:30N 29°44' W 095°08'0 0.0
2017-Dec-14 10:00N 29°44' W 095°08'0 0.3
2017-Dec-14 09:30N 29°44' W 095°08'0 0.7
2017-Dec-14 09:00N 29°44' W 095°08'0 0.1
2017-Dec-14 08:30N 29°44' W 095°08'0 0.0
2017-Dec-14 08:00N 29°44' W 095°08'0 0.0
2017-Dec-14 07:30N 29°44' W 095°08'0 0.0
2017-Dec-14 07:00N 29°44' W 095°08'0 0.0
2017-Dec-14 06:30N 29°44' W 095°08'0 0.0
2017-Dec-14 06:00N 29°44' W 095°08'0 0.0
2017-Dec-14 05:30N 29°44' W 095°08'0 0.0
2017-Dec-14 05:00N 29°44' W 095°08'0 0.0
2017-Dec-14 04:30N 29°44' W 095°08'0 0.0
2017-Dec-14 04:00N 29°44' W 095°08'0 0.0
2017-Dec-14 03:30N 29°44' W 095°08'0 0.0
2017-Dec-14 03:00N 29°44' W 095°08'0 0.0
2017-Dec-14 02:30N 29°44' W 095°08'0 0.0
2017-Dec-14 01:58N 29°44' W 095°08'0 0.0
2017-Dec-14 01:30N 29°44' W 095°08'0 0.0
2017-Dec-14 00:59N 29°44' W 095°08'0 0.0
2017-Dec-14 00:29N 29°44' W 095°08'0 0.0
2017-Dec-13 23:58N 29°44' W 095°08'0 0.0
2017-Dec-13 23:28N 29°44' W 095°08'0 0.0
2017-Dec-13 23:00N 29°44' W 095°08'0 0.0
2017-Dec-13 22:28N 29°44' W 095°08'0 0.0
2017-Dec-13 21:59N 29°44' W 095°08'0 0.0
2017-Dec-13 21:29N 29°44' W 095°08'0 0.0
2017-Dec-13 20:58N 29°44' W 095°08'0 0.0
2017-Dec-13 20:30N 29°44' W 095°08'0 0.0
2017-Dec-13 19:59N 29°44' W 095°08'0 0.1
2017-Dec-13 19:25N 29°44' W 095°08'0 0.2
2017-Dec-13 19:00N 29°44' W 095°08'0 0.0
2017-Dec-13 18:22N 29°44' W 095°08'0 0.0
2017-Dec-13 17:55N 29°44' W 095°08'0 0.0
2017-Dec-13 17:27N 29°44' W 095°08'0 0.0
2017-Dec-13 17:00N 29°44' W 095°08'0 0.0
2017-Dec-13 16:28N 29°44' W 095°08'0 0.0
2017-Dec-13 15:59N 29°44' W 095°08'0 0.0
2017-Dec-13 15:28N 29°44' W 095°08'0 0.0
2017-Dec-13 15:00N 29°44' W 095°08'0 0.0
2017-Dec-13 14:30N 29°44' W 095°08'0 0.0
2017-Dec-13 14:00N 29°44' W 095°08'0 0.0
2017-Dec-13 13:30N 29°44' W 095°08'0 0.0
2017-Dec-13 13:00N 29°44' W 095°08'0 0.0
2017-Dec-13 12:19N 29°44' W 095°08'0 0.0
2017-Dec-13 12:00N 29°44' W 095°08'0 0.4
2017-Dec-13 11:30N 29°44' W 095°08'2 2.3
2017-Dec-13 10:38N 29°45' W 095°06'0 0.1
2017-Dec-13 10:26N 29°45' W 095°06'0 0.0
2017-Dec-13 09:51N 29°45' W 095°06'0 0.0
2017-Dec-13 09:22N 29°45' W 095°06'0 0.0
2017-Dec-13 08:59N 29°45' W 095°06'0 0.0
2017-Dec-13 08:25N 29°45' W 095°06'0 0.0
2017-Dec-13 07:58N 29°45' W 095°06'0 0.0
2017-Dec-13 06:27N 29°45' W 095°06'0 0.0
2017-Dec-13 03:19N 29°45' W 095°06'0 0.0
2017-Dec-13 02:51N 29°45' W 095°06'0 0.0
2017-Dec-13 02:07N 29°45' W 095°06'0 0.0
2017-Dec-13 01:57N 29°45' W 095°06'0 0.0
2017-Dec-13 01:28N 29°45' W 095°06'0 0.0
2017-Dec-12 18:27N 29°45' W 095°06'2 3.6
2017-Dec-12 17:52N 29°44' W 095°08'0 0.6
2017-Dec-12 17:29N 29°44' W 095°08'0 0.0
2017-Dec-12 17:00N 29°44' W 095°08'0 0.0
2017-Dec-12 16:30N 29°44' W 095°08'0 0.0
2017-Dec-12 16:00N 29°44' W 095°08'0 0.0
2017-Dec-12 15:29N 29°44' W 095°08'0 0.0
2017-Dec-12 15:00N 29°44' W 095°08'0 0.0
2017-Dec-12 14:30N 29°44' W 095°08'0 0.0
2017-Dec-12 14:00N 29°44' W 095°08'0 0.0
2017-Dec-12 13:30N 29°44' W 095°08'0 0.0
2017-Dec-12 12:58N 29°44' W 095°08'0 0.1
2017-Dec-12 12:17N 29°44' W 095°08'0 0.0
2017-Dec-12 12:00N 29°44' W 095°08'0 0.0
2017-Dec-12 11:30N 29°44' W 095°08'0 0.0
2017-Dec-12 11:00N 29°44' W 095°08'0 0.0
2017-Dec-12 10:30N 29°44' W 095°08'0 0.0
2017-Dec-12 10:00N 29°44' W 095°08'0 0.0
2017-Dec-12 09:29N 29°44' W 095°08'0 0.0
2017-Dec-12 09:00N 29°44' W 095°08'0 0.0
2017-Dec-12 08:30N 29°44' W 095°08'0 0.0
2017-Dec-12 07:58N 29°44' W 095°08'0 0.0
2017-Dec-12 07:29N 29°44' W 095°08'0 0.0
2017-Dec-12 07:00N 29°44' W 095°08'0 0.0
2017-Dec-12 06:31N 29°44' W 095°08'0 0.0
2017-Dec-12 06:00N 29°44' W 095°08'0 0.0
2017-Dec-12 05:30N 29°44' W 095°08'0 0.0
2017-Dec-12 04:59N 29°44' W 095°08'0 0.0
2017-Dec-12 04:30N 29°44' W 095°08'0 0.0
2017-Dec-12 04:00N 29°44' W 095°08'0 0.0
2017-Dec-12 03:30N 29°44' W 095°08'0 0.0
2017-Dec-12 03:00N 29°44' W 095°08'0 0.0
2017-Dec-12 02:30N 29°44' W 095°08'0 0.0
2017-Dec-12 02:00N 29°44' W 095°08'0 0.0
2017-Dec-12 01:30N 29°44' W 095°08'0 0.0
2017-Dec-12 00:53N 29°44' W 095°08'0 0.0
2017-Dec-12 00:26N 29°44' W 095°08'0 0.0
2017-Dec-11 23:51N 29°44' W 095°08'0 0.0
2017-Dec-11 15:53N 29°44' W 095°08'0 0.0
2017-Dec-11 14:12N 29°44' W 095°08'0 0.0
2017-Dec-11 14:00N 29°44' W 095°08'0 0.0
2017-Dec-11 13:30N 29°44' W 095°08'0 0.0
2017-Dec-11 13:00N 29°44' W 095°08'0 0.0
2017-Dec-11 12:30N 29°44' W 095°08'0 0.0
2017-Dec-11 12:00N 29°44' W 095°08'0 0.0
2017-Dec-11 11:30N 29°44' W 095°08'0 0.0
2017-Dec-11 11:00N 29°44' W 095°08'0 0.0
2017-Dec-11 10:30N 29°44' W 095°08'0 0.0
2017-Dec-11 10:00N 29°44' W 095°08'0 0.0
2017-Dec-11 09:30N 29°44' W 095°08'0 0.0
2017-Dec-11 09:00N 29°44' W 095°08'0 0.0
2017-Dec-11 08:30N 29°44' W 095°08'0 0.0
2017-Dec-11 08:00N 29°44' W 095°08'0 0.0
2017-Dec-11 07:30N 29°44' W 095°08'0 0.0
2017-Dec-11 07:00N 29°44' W 095°08'0 0.0
2017-Dec-11 06:30N 29°44' W 095°08'0 0.0
2017-Dec-11 06:00N 29°44' W 095°08'0 0.0
2017-Dec-11 05:30N 29°44' W 095°08'0 0.0
2017-Dec-11 05:00N 29°44' W 095°08'0 0.0
2017-Dec-11 04:30N 29°44' W 095°08'0 0.0
2017-Dec-11 04:00N 29°44' W 095°08'0 0.0
2017-Dec-11 03:30N 29°44' W 095°08'0 0.0
2017-Dec-11 03:00N 29°44' W 095°08'0 0.0
2017-Dec-11 02:30N 29°44' W 095°08'0 0.0
2017-Dec-11 02:00N 29°44' W 095°08'0 0.0
2017-Dec-11 01:30N 29°44' W 095°08'0 0.0
2017-Dec-11 00:59N 29°44' W 095°08'0 0.0
2017-Dec-11 00:30N 29°44' W 095°08'0 0.0
2017-Dec-10 23:57N 29°44' W 095°08'0 0.0
2017-Dec-10 23:30N 29°44' W 095°08'0 0.0
2017-Dec-10 22:59N 29°44' W 095°08'0 0.0
2017-Dec-10 22:30N 29°44' W 095°08'0 0.0
2017-Dec-10 22:00N 29°44' W 095°08'0 0.0
2017-Dec-10 21:29N 29°44' W 095°08'0 0.0
2017-Dec-10 21:00N 29°44' W 095°08'0 0.0
2017-Dec-10 20:30N 29°44' W 095°08'0 0.0
2017-Dec-10 20:00N 29°44' W 095°08'0 0.0
2017-Dec-10 19:30N 29°44' W 095°08'0 0.0
2017-Dec-10 19:00N 29°44' W 095°08'0 0.0
2017-Dec-10 18:30N 29°44' W 095°08'0 0.0
2017-Dec-10 18:00N 29°44' W 095°08'0 0.0
2017-Dec-10 17:30N 29°44' W 095°08'0 0.0
2017-Dec-10 17:00N 29°44' W 095°08'0 0.0
2017-Dec-10 16:30N 29°44' W 095°08'0 0.0
2017-Dec-10 16:00N 29°44' W 095°08'0 0.0
2017-Dec-10 15:30N 29°44' W 095°08'0 0.0
2017-Dec-10 15:00N 29°44' W 095°08'0 0.0
2017-Dec-10 14:30N 29°44' W 095°08'0 0.0
2017-Dec-10 14:00N 29°44' W 095°08'0 0.0
2017-Dec-10 13:30N 29°44' W 095°08'0 0.0
2017-Dec-10 13:00N 29°44' W 095°08'0 0.0
2017-Dec-10 12:30N 29°44' W 095°08'0 0.0
2017-Dec-10 12:00N 29°44' W 095°08'0 0.0
2017-Dec-10 11:30N 29°44' W 095°08'0 0.0
2017-Dec-10 11:00N 29°44' W 095°08'0 0.0
2017-Dec-10 10:30N 29°44' W 095°08'0 0.0
2017-Dec-10 10:00N 29°44' W 095°08'0 0.0
2017-Dec-10 09:30N 29°44' W 095°08'0 0.0
2017-Dec-10 09:00N 29°44' W 095°08'0 0.0
2017-Dec-10 08:30N 29°44' W 095°08'0 0.0
2017-Dec-10 08:00N 29°44' W 095°08'0 0.0
2017-Dec-10 07:30N 29°44' W 095°08'0 0.3
2017-Dec-10 07:00N 29°44' W 095°08'0 0.2
2017-Dec-10 06:30N 29°44' W 095°08'0 0.2
2017-Dec-10 06:00N 29°44' W 095°08'0 0.0
2017-Dec-10 05:30N 29°44' W 095°08'0 0.0
2017-Dec-10 04:59N 29°44' W 095°08'0 0.0
2017-Dec-10 04:30N 29°44' W 095°08'0 0.1
2017-Dec-09 23:57N 29°44' W 095°08'0 0.0
2017-Dec-09 17:37N 29°44' W 095°08'0 0.1
2017-Dec-09 14:09N 29°44' W 095°08'0 1.4
2017-Dec-09 14:00N 29°44' W 095°08'0 0.0
2017-Dec-09 13:29N 29°44' W 095°08'0 0.0
2017-Dec-09 12:58N 29°44' W 095°08'0 0.0
2017-Dec-09 12:30N 29°44' W 095°08'0 0.0
2017-Dec-09 12:00N 29°44' W 095°08'0 0.0
2017-Dec-09 11:28N 29°44' W 095°08'0 0.0
2017-Dec-09 11:00N 29°44' W 095°08'0 0.0
2017-Dec-09 10:28N 29°44' W 095°08'0 0.0
2017-Dec-09 10:00N 29°44' W 095°08'0 0.0
2017-Dec-09 09:29N 29°44' W 095°08'0 0.0
2017-Dec-09 08:57N 29°44' W 095°08'0 0.0
2017-Dec-09 08:24N 29°44' W 095°08'0 0.0
2017-Dec-09 08:00N 29°44' W 095°08'0 0.0
2017-Dec-09 07:30N 29°44' W 095°08'0 0.0
2017-Dec-09 07:00N 29°44' W 095°08'0 0.1
2017-Dec-09 06:26N 29°44' W 095°08'0 0.3
2017-Dec-09 06:00N 29°44' W 095°08'0 0.0
2017-Dec-09 05:30N 29°44' W 095°08'0 0.0
2017-Dec-09 05:00N 29°44' W 095°08'0 0.0
2017-Dec-09 04:30N 29°44' W 095°08'0 0.0
2017-Dec-09 04:00N 29°44' W 095°08'0 0.0
2017-Dec-09 03:30N 29°44' W 095°08'0 0.0
2017-Dec-09 03:00N 29°44' W 095°08'0 0.0
2017-Dec-09 02:30N 29°44' W 095°08'0 0.0
2017-Dec-09 02:00N 29°44' W 095°08'0 0.0
2017-Dec-09 01:30N 29°44' W 095°08'0 0.0
2017-Dec-09 01:00N 29°44' W 095°08'0 0.0
2017-Dec-09 00:30N 29°44' W 095°08'0 0.0
2017-Dec-09 00:00N 29°44' W 095°08'0 0.0
2017-Dec-08 23:30N 29°44' W 095°08'0 0.0
2017-Dec-08 23:00N 29°44' W 095°08'0 0.0
2017-Dec-08 22:30N 29°44' W 095°08'0 0.0
2017-Dec-08 22:00N 29°44' W 095°08'0 0.0
2017-Dec-08 21:30N 29°44' W 095°08'0 0.0
2017-Dec-08 21:00N 29°44' W 095°08'0 0.0
2017-Dec-08 20:30N 29°44' W 095°08'0 0.0
2017-Dec-08 20:00N 29°44' W 095°08'0 0.0
2017-Dec-08 19:30N 29°44' W 095°08'0 0.0
2017-Dec-08 19:00N 29°44' W 095°08'0 0.0
2017-Dec-08 18:30N 29°44' W 095°08'0 0.0
2017-Dec-08 18:00N 29°44' W 095°08'0 0.0
2017-Dec-08 17:30N 29°44' W 095°08'0 0.0
2017-Dec-08 17:00N 29°44' W 095°08'0 0.0
2017-Dec-08 16:30N 29°44' W 095°08'0 0.0
2017-Dec-08 16:00N 29°44' W 095°08'0 0.0
2017-Dec-08 15:30N 29°44' W 095°08'0 0.0
2017-Dec-08 15:00N 29°44' W 095°08'0 0.0
2017-Dec-08 14:30N 29°44' W 095°08'0 0.0
2017-Dec-08 14:00N 29°44' W 095°08'0 0.0
2017-Dec-08 13:30N 29°44' W 095°08'0 0.0
2017-Dec-08 13:00N 29°44' W 095°08'0 0.0
2017-Dec-08 12:30N 29°44' W 095°08'0 0.0
2017-Dec-08 12:00N 29°44' W 095°08'0 0.0
2017-Dec-08 11:30N 29°44' W 095°08'0 0.0
2017-Dec-08 11:00N 29°44' W 095°08'0 0.0
2017-Dec-08 10:30N 29°44' W 095°08'0 0.0
2017-Dec-08 10:00N 29°44' W 095°08'0 0.0
2017-Dec-08 09:30N 29°44' W 095°08'0 0.0
2017-Dec-08 09:00N 29°44' W 095°08'0 0.0
2017-Dec-08 08:30N 29°44' W 095°08'0 0.0
2017-Dec-08 08:00N 29°44' W 095°08'0 0.0
2017-Dec-08 07:30N 29°44' W 095°08'0 0.0
2017-Dec-08 07:00N 29°44' W 095°08'0 0.0
2017-Dec-08 06:30N 29°44' W 095°08'0 0.0
2017-Dec-08 06:00N 29°44' W 095°08'0 0.0
2017-Dec-08 05:30N 29°44' W 095°08'0 0.0
2017-Dec-08 05:00N 29°44' W 095°08'0 0.0
2017-Dec-08 04:30N 29°44' W 095°08'0 0.0
2017-Dec-08 04:00N 29°44' W 095°08'0 0.0
2017-Dec-08 03:31N 29°44' W 095°08'0 0.0
2017-Dec-08 03:00N 29°44' W 095°08'0 0.0
2017-Dec-08 02:31N 29°44' W 095°08'0 0.0
2017-Dec-08 02:00N 29°44' W 095°08'0 0.0
2017-Dec-08 01:30N 29°44' W 095°08'0 0.0
2017-Dec-08 01:00N 29°44' W 095°08'0 0.0
2017-Dec-08 00:30N 29°44' W 095°08'0 0.0
2017-Dec-08 00:00N 29°44' W 095°08'0 0.0
2017-Dec-07 23:30N 29°44' W 095°08'0 0.0
2017-Dec-07 23:00N 29°44' W 095°08'  
Track history (hours):
 
Tides and Currents Weather Stations Pressure Air Temp Water Temp Dewpoint Dewpoint Depression Visibility Wind Speed Wind Dir Waves Ship Positions

Brooke

Owner: MARTIN OPERATING PARTNERSHIP LP, La Porte, TX. More information available from US FCC via Universal Licensing System and Coast Guard Vessel Documentation Center.

Last reported at 2017-Dec-17 22:59 UTC. Time now 2017-Dec-17 23:12 UTC.
Position N 29°44' W 095°08'.

Length 20 m.

Type: Towing. MMSI: 366875030.

Date/timePositionNaut miles runAvg speedWind from/ knotsBaromVisibWave heightAir tempDewpointWater temp
2017-Dec-17 22:59N 29°44' W 095°08'0 0.0
2017-Dec-17 22:30N 29°44' W 095°08'0 0.0
2017-Dec-17 22:00N 29°44' W 095°08'0 0.0
2017-Dec-17 21:30N 29°44' W 095°08'0 0.0
2017-Dec-17 20:58N 29°44' W 095°08'0 0.0
2017-Dec-17 20:23N 29°44' W 095°08'0 0.0
2017-Dec-17 20:00N 29°44' W 095°08'0 0.0
2017-Dec-17 19:30N 29°44' W 095°08'0 0.0
2017-Dec-17 18:43N 29°44' W 095°08'0 0.0
2017-Dec-17 18:26N 29°44' W 095°08'0 0.0
2017-Dec-17 17:59N 29°44' W 095°08'0 0.0
2017-Dec-17 16:42N 29°44' W 095°08'0 0.0
2017-Dec-17 16:28N 29°44' W 095°08'0 0.0
2017-Dec-17 15:59N 29°44' W 095°08'0 0.0
2017-Dec-17 15:21N 29°44' W 095°08'0 0.0
2017-Dec-17 15:00N 29°44' W 095°08'0 0.0
2017-Dec-17 14:28N 29°44' W 095°08'0 0.0
2017-Dec-17 13:59N 29°44' W 095°08'0 0.0
2017-Dec-17 13:29N 29°44' W 095°08'0 0.0
2017-Dec-17 12:56N 29°44' W 095°08'0 0.0
2017-Dec-17 12:27N 29°44' W 095°08'0 0.0
2017-Dec-17 12:00N 29°44' W 095°08'0 0.0
2017-Dec-17 11:30N 29°44' W 095°08'0 0.0
2017-Dec-17 11:00N 29°44' W 095°08'0 0.0
2017-Dec-17 10:30N 29°44' W 095°08'0 0.0
2017-Dec-17 10:00N 29°44' W 095°08'0 0.0
2017-Dec-17 09:30N 29°44' W 095°08'0 0.0
2017-Dec-17 09:00N 29°44' W 095°08'0 0.0
2017-Dec-17 08:29N 29°44' W 095°08'0 0.0
2017-Dec-17 08:00N 29°44' W 095°08'0 0.0
2017-Dec-17 07:30N 29°44' W 095°08'0 0.0
2017-Dec-17 07:01N 29°44' W 095°08'0 0.0
2017-Dec-17 06:30N 29°44' W 095°08'0 0.0
2017-Dec-17 06:00N 29°44' W 095°08'0 0.0
2017-Dec-17 05:30N 29°44' W 095°08'0 0.0
2017-Dec-17 05:00N 29°44' W 095°08'0 0.0
2017-Dec-17 04:31N 29°44' W 095°08'0 0.0
2017-Dec-17 04:00N 29°44' W 095°08'0 0.0
2017-Dec-17 03:30N 29°44' W 095°08'0 0.0
2017-Dec-17 02:58N 29°44' W 095°08'0 0.0
2017-Dec-17 02:15N 29°44' W 095°08'0 0.0
2017-Dec-17 01:32N 29°44' W 095°08'0 0.0
2017-Dec-17 01:28N 29°44' W 095°08'2 0.2
2017-Dec-16 13:46N 29°45' W 095°06'0 0.1
2017-Dec-16 13:30N 29°45' W 095°06'0 0.0
2017-Dec-16 12:59N 29°45' W 095°06'0 0.0
2017-Dec-16 12:27N 29°45' W 095°06'0 0.0
2017-Dec-16 12:00N 29°45' W 095°06'0 0.0
2017-Dec-16 11:30N 29°45' W 095°06'0 0.0
2017-Dec-16 10:59N 29°45' W 095°06'0 0.0
2017-Dec-16 10:30N 29°45' W 095°06'0 0.0
2017-Dec-16 10:00N 29°45' W 095°06'0 0.0
2017-Dec-16 09:30N 29°45' W 095°06'0 0.0
2017-Dec-16 09:00N 29°45' W 095°06'0 0.0
2017-Dec-16 08:27N 29°45' W 095°06'0 0.0
2017-Dec-16 08:00N 29°45' W 095°06'0 0.0
2017-Dec-16 07:27N 29°45' W 095°06'0 0.0
2017-Dec-16 07:00N 29°45' W 095°06'0 0.0
2017-Dec-16 06:29N 29°45' W 095°06'0 0.0
2017-Dec-16 06:00N 29°45' W 095°06'0 0.0
2017-Dec-16 05:30N 29°45' W 095°06'0 0.0
2017-Dec-16 05:00N 29°45' W 095°06'0 0.0
2017-Dec-16 04:29N 29°45' W 095°06'0 0.0
2017-Dec-16 03:59N 29°45' W 095°06'0 0.0
2017-Dec-16 03:29N 29°45' W 095°06'0 0.2
2017-Dec-16 02:49N 29°45' W 095°06'1 4.5
2017-Dec-16 02:30N 29°44' W 095°07'1 1.6
2017-Dec-16 02:00N 29°44' W 095°08'0 0.0
2017-Dec-16 01:30N 29°44' W 095°08'0 0.0
2017-Dec-16 01:00N 29°44' W 095°08'0 0.0
2017-Dec-16 00:30N 29°44' W 095°08'0 0.0
2017-Dec-15 23:58N 29°44' W 095°08'0 0.0
2017-Dec-15 23:30N 29°44' W 095°08'0 0.0
2017-Dec-15 22:59N 29°44' W 095°08'0 0.0
2017-Dec-15 22:31N 29°44' W 095°08'3 4.8
2017-Dec-15 21:52N 29°46' W 095°05'0 1.0
2017-Dec-15 21:30N 29°46' W 095°06'2 4.5
2017-Dec-15 20:59N 29°44' W 095°07'1 1.4
2017-Dec-15 20:30N 29°44' W 095°08'0 0.0
2017-Dec-15 20:00N 29°44' W 095°08'0 0.0
2017-Dec-15 19:30N 29°44' W 095°08'0 0.0
2017-Dec-15 19:00N 29°44' W 095°08'0 0.0
2017-Dec-15 18:30N 29°44' W 095°08'0 0.0
2017-Dec-15 18:00N 29°44' W 095°08'0 0.0
2017-Dec-15 17:30N 29°44' W 095°08'0 0.0
2017-Dec-15 17:00N 29°44' W 095°08'0 0.0
2017-Dec-15 16:29N 29°44' W 095°08'0 0.0
2017-Dec-15 16:00N 29°44' W 095°08'0 0.0
2017-Dec-15 15:28N 29°44' W 095°08'0 0.0
2017-Dec-15 15:00N 29°44' W 095°08'0 0.0
2017-Dec-15 14:30N 29°44' W 095°08'0 0.0
2017-Dec-15 13:59N 29°44' W 095°08'0 0.0
2017-Dec-15 13:30N 29°44' W 095°08'0 0.0
2017-Dec-15 13:00N 29°44' W 095°08'0 0.0
2017-Dec-15 12:30N 29°44' W 095°08'0 0.0
2017-Dec-15 12:00N 29°44' W 095°08'0 0.0
2017-Dec-15 11:30N 29°44' W 095°08'0 0.0
2017-Dec-15 11:00N 29°44' W 095°08'0 0.0
2017-Dec-15 10:30N 29°44' W 095°08'0 0.0
2017-Dec-15 10:00N 29°44' W 095°08'0 0.0
2017-Dec-15 09:30N 29°44' W 095°08'0 0.0
2017-Dec-15 09:00N 29°44' W 095°08'0 0.0
2017-Dec-15 08:30N 29°44' W 095°08'0 0.0
2017-Dec-15 08:00N 29°44' W 095°08'0 0.0
2017-Dec-15 07:30N 29°44' W 095°08'0 0.0
2017-Dec-15 07:00N 29°44' W 095°08'0 0.0
2017-Dec-15 06:30N 29°44' W 095°08'0 0.0
2017-Dec-15 06:00N 29°44' W 095°08'0 0.0
2017-Dec-15 05:30N 29°44' W 095°08'0 0.5
2017-Dec-15 04:59N 29°44' W 095°08'0 0.0
2017-Dec-15 04:00N 29°44' W 095°08'0 0.1
2017-Dec-15 00:08N 29°44' W 095°08'0 0.0
2017-Dec-14 17:45N 29°44' W 095°08'0 0.1
2017-Dec-14 12:42N 29°44' W 095°08'0 0.3
2017-Dec-14 11:36N 29°44' W 095°08'0 0.0
2017-Dec-14 11:15N 29°44' W 095°08'0 0.0
2017-Dec-14 10:56N 29°44' W 095°08'0 0.0
2017-Dec-14 10:30N 29°44' W 095°08'0 0.0
2017-Dec-14 10:00N 29°44' W 095°08'0 0.3
2017-Dec-14 09:30N 29°44' W 095°08'0 0.7
2017-Dec-14 09:00N 29°44' W 095°08'0 0.1
2017-Dec-14 08:30N 29°44' W 095°08'0 0.0
2017-Dec-14 08:00N 29°44' W 095°08'0 0.0
2017-Dec-14 07:30N 29°44' W 095°08'0 0.0
2017-Dec-14 07:00N 29°44' W 095°08'0 0.0
2017-Dec-14 06:30N 29°44' W 095°08'0 0.0
2017-Dec-14 06:00N 29°44' W 095°08'0 0.0
2017-Dec-14 05:30N 29°44' W 095°08'0 0.0
2017-Dec-14 05:00N 29°44' W 095°08'0 0.0
2017-Dec-14 04:30N 29°44' W 095°08'0 0.0
2017-Dec-14 04:00N 29°44' W 095°08'0 0.0
2017-Dec-14 03:30N 29°44' W 095°08'0 0.0
2017-Dec-14 03:00N 29°44' W 095°08'0 0.0
2017-Dec-14 02:30N 29°44' W 095°08'0 0.0
2017-Dec-14 01:58N 29°44' W 095°08'0 0.0
2017-Dec-14 01:30N 29°44' W 095°08'0 0.0
2017-Dec-14 00:59N 29°44' W 095°08'0 0.0
2017-Dec-14 00:29N 29°44' W 095°08'0 0.0
2017-Dec-13 23:58N 29°44' W 095°08'0 0.0
2017-Dec-13 23:28N 29°44' W 095°08'0 0.0
2017-Dec-13 23:00N 29°44' W 095°08'0 0.0
2017-Dec-13 22:28N 29°44' W 095°08'0 0.0
2017-Dec-13 21:59N 29°44' W 095°08'0 0.0
2017-Dec-13 21:29N 29°44' W 095°08'0 0.0
2017-Dec-13 20:58N 29°44' W 095°08'0 0.0
2017-Dec-13 20:30N 29°44' W 095°08'0 0.0
2017-Dec-13 19:59N 29°44' W 095°08'0 0.1
2017-Dec-13 19:25N 29°44' W 095°08'0 0.2
2017-Dec-13 19:00N 29°44' W 095°08'0 0.0
2017-Dec-13 18:22N 29°44' W 095°08'0 0.0
2017-Dec-13 17:55N 29°44' W 095°08'0 0.0
2017-Dec-13 17:27N 29°44' W 095°08'0 0.0
2017-Dec-13 17:00N 29°44' W 095°08'0 0.0
2017-Dec-13 16:28N 29°44' W 095°08'0 0.0
2017-Dec-13 15:59N 29°44' W 095°08'0 0.0
2017-Dec-13 15:28N 29°44' W 095°08'0 0.0
2017-Dec-13 15:00N 29°44' W 095°08'0 0.0
2017-Dec-13 14:30N 29°44' W 095°08'0 0.0
2017-Dec-13 14:00N 29°44' W 095°08'0 0.0
2017-Dec-13 13:30N 29°44' W 095°08'0 0.0
2017-Dec-13 13:00N 29°44' W 095°08'0 0.0
2017-Dec-13 12:19N 29°44' W 095°08'0 0.0
2017-Dec-13 12:00N 29°44' W 095°08'0 0.4
2017-Dec-13 11:30N 29°44' W 095°08'2 2.3
2017-Dec-13 10:38N 29°45' W 095°06'0 0.1
2017-Dec-13 10:26N 29°45' W 095°06'0 0.0
2017-Dec-13 09:51N 29°45' W 095°06'0 0.0
2017-Dec-13 09:22N 29°45' W 095°06'0 0.0
2017-Dec-13 08:59N 29°45' W 095°06'0 0.0
2017-Dec-13 08:25N 29°45' W 095°06'0 0.0
2017-Dec-13 07:58N 29°45' W 095°06'0 0.0
2017-Dec-13 06:27N 29°45' W 095°06'0 0.0
2017-Dec-13 03:19N 29°45' W 095°06'0 0.0
2017-Dec-13 02:51N 29°45' W 095°06'0 0.0
2017-Dec-13 02:07N 29°45' W 095°06'0 0.0
2017-Dec-13 01:57N 29°45' W 095°06'0 0.0
2017-Dec-13 01:28N 29°45' W 095°06'0 0.0
2017-Dec-12 18:27N 29°45' W 095°06'2 3.6
2017-Dec-12 17:52N 29°44' W 095°08'0 0.6
2017-Dec-12 17:29N 29°44' W 095°08'0 0.0
2017-Dec-12 17:00N 29°44' W 095°08'0 0.0
2017-Dec-12 16:30N 29°44' W 095°08'0 0.0
2017-Dec-12 16:00N 29°44' W 095°08'0 0.0
2017-Dec-12 15:29N 29°44' W 095°08'0 0.0
2017-Dec-12 15:00N 29°44' W 095°08'0 0.0
2017-Dec-12 14:30N 29°44' W 095°08'0 0.0
2017-Dec-12 14:00N 29°44' W 095°08'0 0.0
2017-Dec-12 13:30N 29°44' W 095°08'0 0.0
2017-Dec-12 12:58N 29°44' W 095°08'0 0.1
2017-Dec-12 12:17N 29°44' W 095°08'0 0.0
2017-Dec-12 12:00N 29°44' W 095°08'0 0.0
2017-Dec-12 11:30N 29°44' W 095°08'0 0.0
2017-Dec-12 11:00N 29°44' W 095°08'0 0.0
2017-Dec-12 10:30N 29°44' W 095°08'0 0.0
2017-Dec-12 10:00N 29°44' W 095°08'0 0.0
2017-Dec-12 09:29N 29°44' W 095°08'0 0.0
2017-Dec-12 09:00N 29°44' W 095°08'0 0.0
2017-Dec-12 08:30N 29°44' W 095°08'0 0.0
2017-Dec-12 07:58N 29°44' W 095°08'0 0.0
2017-Dec-12 07:29N 29°44' W 095°08'0 0.0
2017-Dec-12 07:00N 29°44' W 095°08'0 0.0
2017-Dec-12 06:31N 29°44' W 095°08'0 0.0
2017-Dec-12 06:00N 29°44' W 095°08'0 0.0
2017-Dec-12 05:30N 29°44' W 095°08'0 0.0
2017-Dec-12 04:59N 29°44' W 095°08'0 0.0
2017-Dec-12 04:30N 29°44' W 095°08'0 0.0
2017-Dec-12 04:00N 29°44' W 095°08'0 0.0
2017-Dec-12 03:30N 29°44' W 095°08'0 0.0
2017-Dec-12 03:00N 29°44' W 095°08'0 0.0
2017-Dec-12 02:30N 29°44' W 095°08'0 0.0
2017-Dec-12 02:00N 29°44' W 095°08'0 0.0
2017-Dec-12 01:30N 29°44' W 095°08'0 0.0
2017-Dec-12 00:53N 29°44' W 095°08'0 0.0
2017-Dec-12 00:26N 29°44' W 095°08'0 0.0
2017-Dec-11 23:51N 29°44' W 095°08'0 0.0
2017-Dec-11 15:53N 29°44' W 095°08'0 0.0
2017-Dec-11 14:12N 29°44' W 095°08'0 0.0
2017-Dec-11 14:00N 29°44' W 095°08'0 0.0
2017-Dec-11 13:30N 29°44' W 095°08'0 0.0
2017-Dec-11 13:00N 29°44' W 095°08'0 0.0
2017-Dec-11 12:30N 29°44' W 095°08'0 0.0
2017-Dec-11 12:00N 29°44' W 095°08'0 0.0
2017-Dec-11 11:30N 29°44' W 095°08'0 0.0
2017-Dec-11 11:00N 29°44' W 095°08'0 0.0
2017-Dec-11 10:30N 29°44' W 095°08'0 0.0
2017-Dec-11 10:00N 29°44' W 095°08'0 0.0
2017-Dec-11 09:30N 29°44' W 095°08'0 0.0
2017-Dec-11 09:00N 29°44' W 095°08'0 0.0
2017-Dec-11 08:30N 29°44' W 095°08'0 0.0
2017-Dec-11 08:00N 29°44' W 095°08'0 0.0
2017-Dec-11 07:30N 29°44' W 095°08'0 0.0
2017-Dec-11 07:00N 29°44' W 095°08'0 0.0
2017-Dec-11 06:30N 29°44' W 095°08'0 0.0
2017-Dec-11 06:00N 29°44' W 095°08'0 0.0
2017-Dec-11 05:30N 29°44' W 095°08'0 0.0
2017-Dec-11 05:00N 29°44' W 095°08'0 0.0
2017-Dec-11 04:30N 29°44' W 095°08'0 0.0
2017-Dec-11 04:00N 29°44' W 095°08'0 0.0
2017-Dec-11 03:30N 29°44' W 095°08'0 0.0
2017-Dec-11 03:00N 29°44' W 095°08'0 0.0
2017-Dec-11 02:30N 29°44' W 095°08'0 0.0
2017-Dec-11 02:00N 29°44' W 095°08'0 0.0
2017-Dec-11 01:30N 29°44' W 095°08'0 0.0
2017-Dec-11 00:59N 29°44' W 095°08'0 0.0
2017-Dec-11 00:30N 29°44' W 095°08'0 0.0
2017-Dec-10 23:57N 29°44' W 095°08'0 0.0
2017-Dec-10 23:30N 29°44' W 095°08'0 0.0
2017-Dec-10 22:59N 29°44' W 095°08'0 0.0
2017-Dec-10 22:30N 29°44' W 095°08'0 0.0
2017-Dec-10 22:00N 29°44' W 095°08'0 0.0
2017-Dec-10 21:29N 29°44' W 095°08'0 0.0
2017-Dec-10 21:00N 29°44' W 095°08'0 0.0
2017-Dec-10 20:30N 29°44' W 095°08'0 0.0
2017-Dec-10 20:00N 29°44' W 095°08'0 0.0
2017-Dec-10 19:30N 29°44' W 095°08'0 0.0
2017-Dec-10 19:00N 29°44' W 095°08'0 0.0
2017-Dec-10 18:30N 29°44' W 095°08'0 0.0
2017-Dec-10 18:00N 29°44' W 095°08'0 0.0
2017-Dec-10 17:30N 29°44' W 095°08'0 0.0
2017-Dec-10 17:00N 29°44' W 095°08'0 0.0
2017-Dec-10 16:30N 29°44' W 095°08'0 0.0
2017-Dec-10 16:00N 29°44' W 095°08'0 0.0
2017-Dec-10 15:30N 29°44' W 095°08'0 0.0
2017-Dec-10 15:00N 29°44' W 095°08'0 0.0
2017-Dec-10 14:30N 29°44' W 095°08'0 0.0
2017-Dec-10 14:00N 29°44' W 095°08'0 0.0
2017-Dec-10 13:30N 29°44' W 095°08'0 0.0
2017-Dec-10 13:00N 29°44' W 095°08'0 0.0
2017-Dec-10 12:30N 29°44' W 095°08'0 0.0
2017-Dec-10 12:00N 29°44' W 095°08'0 0.0
2017-Dec-10 11:30N 29°44' W 095°08'0 0.0
2017-Dec-10 11:00N 29°44' W 095°08'0 0.0
2017-Dec-10 10:30N 29°44' W 095°08'0 0.0
2017-Dec-10 10:00N 29°44' W 095°08'0 0.0
2017-Dec-10 09:30N 29°44' W 095°08'0 0.0
2017-Dec-10 09:00N 29°44' W 095°08'0 0.0
2017-Dec-10 08:30N 29°44' W 095°08'0 0.0
2017-Dec-10 08:00N 29°44' W 095°08'0 0.0
2017-Dec-10 07:30N 29°44' W 095°08'0 0.3
2017-Dec-10 07:00N 29°44' W 095°08'0 0.2
2017-Dec-10 06:30N 29°44' W 095°08'0 0.2
2017-Dec-10 06:00N 29°44' W 095°08'0 0.0
2017-Dec-10 05:30N 29°44' W 095°08'0 0.0
2017-Dec-10 04:59N 29°44' W 095°08'0 0.0
2017-Dec-10 04:30N 29°44' W 095°08'0 0.1
2017-Dec-09 23:57N 29°44' W 095°08'0 0.0
2017-Dec-09 17:37N 29°44' W 095°08'0 0.1
2017-Dec-09 14:09N 29°44' W 095°08'0 1.4
2017-Dec-09 14:00N 29°44' W 095°08'0 0.0
2017-Dec-09 13:29N 29°44' W 095°08'0 0.0
2017-Dec-09 12:58N 29°44' W 095°08'0 0.0
2017-Dec-09 12:30N 29°44' W 095°08'0 0.0
2017-Dec-09 12:00N 29°44' W 095°08'0 0.0
2017-Dec-09 11:28N 29°44' W 095°08'0 0.0
2017-Dec-09 11:00N 29°44' W 095°08'0 0.0
2017-Dec-09 10:28N 29°44' W 095°08'0 0.0
2017-Dec-09 10:00N 29°44' W 095°08'0 0.0
2017-Dec-09 09:29N 29°44' W 095°08'0 0.0
2017-Dec-09 08:57N 29°44' W 095°08'0 0.0
2017-Dec-09 08:24N 29°44' W 095°08'0 0.0
2017-Dec-09 08:00N 29°44' W 095°08'0 0.0
2017-Dec-09 07:30N 29°44' W 095°08'0 0.0
2017-Dec-09 07:00N 29°44' W 095°08'0 0.1
2017-Dec-09 06:26N 29°44' W 095°08'0 0.3
2017-Dec-09 06:00N 29°44' W 095°08'0 0.0
2017-Dec-09 05:30N 29°44' W 095°08'0 0.0
2017-Dec-09 05:00N 29°44' W 095°08'0 0.0
2017-Dec-09 04:30N 29°44' W 095°08'0 0.0
2017-Dec-09 04:00N 29°44' W 095°08'0 0.0
2017-Dec-09 03:30N 29°44' W 095°08'0 0.0
2017-Dec-09 03:00N 29°44' W 095°08'0 0.0
2017-Dec-09 02:30N 29°44' W 095°08'0 0.0
2017-Dec-09 02:00N 29°44' W 095°08'0 0.0
2017-Dec-09 01:30N 29°44' W 095°08'0 0.0
2017-Dec-09 01:00N 29°44' W 095°08'0 0.0
2017-Dec-09 00:30N 29°44' W 095°08'0 0.0
2017-Dec-09 00:00N 29°44' W 095°08'0 0.0
2017-Dec-08 23:30N 29°44' W 095°08'0 0.0
2017-Dec-08 23:00N 29°44' W 095°08'0 0.0
2017-Dec-08 22:30N 29°44' W 095°08'0 0.0
2017-Dec-08 22:00N 29°44' W 095°08'0 0.0
2017-Dec-08 21:30N 29°44' W 095°08'0 0.0
2017-Dec-08 21:00N 29°44' W 095°08'0 0.0
2017-Dec-08 20:30N 29°44' W 095°08'0 0.0
2017-Dec-08 20:00N 29°44' W 095°08'0 0.0
2017-Dec-08 19:30N 29°44' W 095°08'0 0.0
2017-Dec-08 19:00N 29°44' W 095°08'0 0.0
2017-Dec-08 18:30N 29°44' W 095°08'0 0.0
2017-Dec-08 18:00N 29°44' W 095°08'0 0.0
2017-Dec-08 17:30N 29°44' W 095°08'0 0.0
2017-Dec-08 17:00N 29°44' W 095°08'0 0.0
2017-Dec-08 16:30N 29°44' W 095°08'0 0.0
2017-Dec-08 16:00N 29°44' W 095°08'0 0.0
2017-Dec-08 15:30N 29°44' W 095°08'0 0.0
2017-Dec-08 15:00N 29°44' W 095°08'0 0.0
2017-Dec-08 14:30N 29°44' W 095°08'0 0.0
2017-Dec-08 14:00N 29°44' W 095°08'0 0.0
2017-Dec-08 13:30N 29°44' W 095°08'0 0.0
2017-Dec-08 13:00N 29°44' W 095°08'0 0.0
2017-Dec-08 12:30N 29°44' W 095°08'0 0.0
2017-Dec-08 12:00N 29°44' W 095°08'0 0.0
2017-Dec-08 11:30N 29°44' W 095°08'0 0.0
2017-Dec-08 11:00N 29°44' W 095°08'0 0.0
2017-Dec-08 10:30N 29°44' W 095°08'0 0.0
2017-Dec-08 10:00N 29°44' W 095°08'0 0.0
2017-Dec-08 09:30N 29°44' W 095°08'0 0.0
2017-Dec-08 09:00N 29°44' W 095°08'0 0.0
2017-Dec-08 08:30N 29°44' W 095°08'0 0.0
2017-Dec-08 08:00N 29°44' W 095°08'0 0.0
2017-Dec-08 07:30N 29°44' W 095°08'0 0.0
2017-Dec-08 07:00N 29°44' W 095°08'0 0.0
2017-Dec-08 06:30N 29°44' W 095°08'0 0.0
2017-Dec-08 06:00N 29°44' W 095°08'0 0.0
2017-Dec-08 05:30N 29°44' W 095°08'0 0.0
2017-Dec-08 05:00N 29°44' W 095°08'0 0.0
2017-Dec-08 04:30N 29°44' W 095°08'0 0.0
2017-Dec-08 04:00N 29°44' W 095°08'0 0.0
2017-Dec-08 03:31N 29°44' W 095°08'0 0.0
2017-Dec-08 03:00N 29°44' W 095°08'0 0.0
2017-Dec-08 02:31N 29°44' W 095°08'0 0.0
2017-Dec-08 02:00N 29°44' W 095°08'0 0.0
2017-Dec-08 01:30N 29°44' W 095°08'0 0.0
2017-Dec-08 01:00N 29°44' W 095°08'0 0.0
2017-Dec-08 00:30N 29°44' W 095°08'0 0.0
2017-Dec-08 00:00N 29°44' W 095°08'0 0.0
2017-Dec-07 23:30N 29°44' W 095°08'0 0.0
2017-Dec-07 23:00N 29°44' W 095°08'  

Dump ship's entire track history